National Oceanic Atmosphere Administration National Weather Service Headquarters National Weather Service Headquarters
NOAA logo WFO Anchorage Scalable transition graphic NWS logo
Transition from title bar to navgation bar   Aviation Weather 11 AKDT 
blankspace Home   |   Mobile   |   Social Media   |   Mesonet   |   Surface Map   |   Radar   |   Submit Storm Reports =19 GMT 

LocalForecast by City, St or Zip Code

spacer

Forecasts/Products
  Public
  Forecast Discussion
    - With Glossary
  Aviation
  Marine
  Hydrology(RFC)
  Rivers & Lakes AHPS
  Ice Desk
  TV Weather
  Fire Weather
  Avalanche
  Travel 511
  Graphical
  xml logo RSS Feeds
  Marine FTPMail

spacer

Data
  Mesonet
  Model Graphics
  Local Model
  Observations
  Marine Obs
  Satellite/Radar
  Vent Factor
  Soaring Index
  Weather Links

spacer

Climate
  PAFC Climate
  Interactive Climate
  PAFC Records
  Local
  National
  More

spacer

Outreach
  About Us
  Community Outreach
  Kids' Page
  Tour/Speaker Request
  Weather Classroom
  Social Media

spacer

Reports
  COOP Observers
  Local Storm Reports
  Spotter Page
  Submit a Storm Report

spacer

Miscellaneous
  Archived Alaska Weather Stories
  Student Career Opportunities
  Research Papers

spacer

Print Friendly/
Low Bandwidth

  Public Forecasts
  Marine Forecasts

spacer

Contact Us
  mailto pafcweb

spacer

Facebook Follow the National Weather Service in Alaska on Twitter
USA.gov is the U.S. government's official web portal to all federal, state and local government web resources and services.


 ICAO ID:   AAWU Graphics

Internet access to TAFs and METAR observations is for planning purposes only. We can not guarantee the timeliness of internet products. Before flying please get a formal pilot briefing (1-800-992-7433) and ALWAYS file a Flight Plan!Pilot briefings are provided to licensed aircraft pilots, ONLY! Others may not use the above number to obtain weather information.

Check out the Key to TAFs and METARs for help with decoding the information.

A 12 hour summary of TAFs can be found here.

PANC TAF
PANC 211932Z 2120/2224  00000KT 4SM BR OVC004
     FM212000 00000KT 5SM BR BKN006 OVC025
     FM212100 29007KT P6SM FEW008 SCT060
     FM220900 VRB06KT 4SM BR SCT010 BKN050 BKN120
     FM221500 12008KT P6SM BKN060=


METAR PANC 211853Z 30003KT 4SM BR OVC004 13/11 A3019 RMK AO2 SLP223
    T01330111=
METAR PANC 211853Z 30003KT 4SM BR OVC004 13/11 A3019=
METAR PANC 211753Z COR 00000KT 4SM BR OVC004 14/11 A3018 RMK AO2 SLP221
     T01390111 10139 20122 50001=
METAR PANC 211753Z 00000KT 4SM HZ OVC004 14/11 A3018=
METAR PANC 211653Z 00000KT 3SM BR OVC004 13/11 A3018 RMK AO2 SLP222
     T01330111=
METAR PANC 211653Z 00000KT 3SM BR OVC004 13/11 A3018=
SPECI PANC 211622Z 00000KT 3SM BR BKN004 OVC025 13/11 A3019 RMK AO2=
PANC 211622Z 00000KT 3SM BR BKN004 OVC025 13/11 A3019=
METAR PANC 211553Z 00000KT 2SM BR BKN002 OVC025 13/11 A3018 RMK AO2
     SLP222 T01280111=
METAR PANC 211553Z 00000KT 2SM BR BKN002 OVC025 13/11 A3018=
PANC 211525Z COR 00000KT 2SM BR BKN002 OVC025 13/11 A3018 RMK
     AO2=
PANC 211525Z COR 00000KT 2SM BR BKN002 OVC025 13/11 A3018=


National Weather Service
Anchorage Forecast Office
6930 Sand Lake Road
Anchorage, Ak 99502
(907) 266-5105 M-F/7-5pm
About Us
Career Opportunities
Glossary
Disclaimer
Privacy Policy
Credits
Alaska Weather Information Line:
1-800-472-0391